Terminal Aerodrome Forecast
Issued by NWS

Home | Current Version | Previous Version | Graphics & Text | Print | Product List | Glossary On
Versions: 1 2 3 4 5 6 7 8 9 10 11 12 13 14 15 16 17 18 19 20 21
000
FTUS43 KICT 152000 AAA
TAFCNU
TAF AMD
KCNU 152032Z 1521/1618 01013KT P6SM VCTS SCT040CB BKN080
      TEMPO 1521/1523 5SM -TSRA BR BKN040CB
     FM160100 03011KT P6SM VCSH OVC025
     FM160700 06009KT P6SM BKN025=

USA.gov is the U.S. government's official web portal to all federal, state and local government web resources and services.